sensor_id;sensor_type;location;lat;lon;timestamp;temperature;humidity
2012;DHT22;1009;51.436;6.972;2023-03-14T00:00:52;11.40;99.90
2012;DHT22;1009;51.436;6.972;2023-03-14T00:03:18;11.40;99.90
2012;DHT22;1009;51.436;6.972;2023-03-14T00:05:45;11.40;99.90
2012;DHT22;1009;51.436;6.972;2023-03-14T00:08:12;11.40;99.90
2012;DHT22;1009;51.436;6.972;2023-03-14T00:10:39;11.40;99.90
2012;DHT22;1009;51.436;6.972;2023-03-14T00:13:08;11.40;99.90
2012;DHT22;1009;51.436;6.972;2023-03-14T00:15:35;11.40;99.90
2012;DHT22;1009;51.436;6.972;2023-03-14T00:18:02;11.40;99.90
2012;DHT22;1009;51.436;6.972;2023-03-14T00:20:28;11.40;99.90
2012;DHT22;1009;51.436;6.972;2023-03-14T00:22:55;11.50;99.90
2012;DHT22;1009;51.436;6.972;2023-03-14T00:25:25;11.40;99.90
2012;DHT22;1009;51.436;6.972;2023-03-14T00:27:52;11.50;99.90
2012;DHT22;1009;51.436;6.972;2023-03-14T00:30:20;11.40;99.90
2012;DHT22;1009;51.436;6.972;2023-03-14T00:32:47;11.40;99.90
2012;DHT22;1009;51.436;6.972;2023-03-14T00:35:13;11.40;99.90
2012;DHT22;1009;51.436;6.972;2023-03-14T00:37:41;11.50;99.90
2012;DHT22;1009;51.436;6.972;2023-03-14T00:40:09;11.50;99.90
2012;DHT22;1009;51.436;6.972;2023-03-14T00:42:35;11.50;99.90
2012;DHT22;1009;51.436;6.972;2023-03-14T00:45:03;11.50;99.90
2012;DHT22;1009;51.436;6.972;2023-03-14T00:47:31;11.30;99.90
2012;DHT22;1009;51.436;6.972;2023-03-14T00:49:58;11.10;99.90
2012;DHT22;1009;51.436;6.972;2023-03-14T00:52:25;11.00;99.90
2012;DHT22;1009;51.436;6.972;2023-03-14T00:54:51;10.90;99.90
2012;DHT22;1009;51.436;6.972;2023-03-14T00:57:18;10.70;99.90
2012;DHT22;1009;51.436;6.972;2023-03-14T00:59:45;10.60;99.90
2012;DHT22;1009;51.436;6.972;2023-03-14T01:02:12;10.50;99.90
2012;DHT22;1009;51.436;6.972;2023-03-14T01:04:40;10.40;99.90
2012;DHT22;1009;51.436;6.972;2023-03-14T01:07:08;10.20;99.90
2012;DHT22;1009;51.436;6.972;2023-03-14T01:09:35;10.10;99.90
2012;DHT22;1009;51.436;6.972;2023-03-14T01:12:02;10.00;99.90
2012;DHT22;1009;51.436;6.972;2023-03-14T01:14:28;10.00;99.90
2012;DHT22;1009;51.436;6.972;2023-03-14T01:16:55;9.90;99.90
2012;DHT22;1009;51.436;6.972;2023-03-14T01:19:26;9.80;99.90
2012;DHT22;1009;51.436;6.972;2023-03-14T01:21:54;9.70;99.90
2012;DHT22;1009;51.436;6.972;2023-03-14T01:24:20;9.70;99.90
2012;DHT22;1009;51.436;6.972;2023-03-14T01:26:47;9.70;99.90
2012;DHT22;1009;51.436;6.972;2023-03-14T01:29:14;9.70;99.90
2012;DHT22;1009;51.436;6.972;2023-03-14T01:31:43;9.70;99.90
2012;DHT22;1009;51.436;6.972;2023-03-14T01:34:10;9.80;99.90
2012;DHT22;1009;51.436;6.972;2023-03-14T01:36:37;9.70;99.90
2012;DHT22;1009;51.436;6.972;2023-03-14T01:39:05;9.70;99.90
2012;DHT22;1009;51.436;6.972;2023-03-14T01:41:33;9.80;99.90
2012;DHT22;1009;51.436;6.972;2023-03-14T01:44:00;9.80;99.90
2012;DHT22;1009;51.436;6.972;2023-03-14T01:46:36;9.80;99.90
2012;DHT22;1009;51.436;6.972;2023-03-14T01:49:11;9.70;99.90
2012;DHT22;1009;51.436;6.972;2023-03-14T01:51:44;9.70;99.90
2012;DHT22;1009;51.436;6.972;2023-03-14T01:54:18;9.60;99.90
2012;DHT22;1009;51.436;6.972;2023-03-14T01:56:50;9.60;99.90
2012;DHT22;1009;51.436;6.972;2023-03-14T01:59:18;9.70;99.90
2012;DHT22;1009;51.436;6.972;2023-03-14T02:01:46;9.60;99.90
2012;DHT22;1009;51.436;6.972;2023-03-14T02:04:14;9.60;99.90
2012;DHT22;1009;51.436;6.972;2023-03-14T02:06:50;9.70;99.90
2012;DHT22;1009;51.436;6.972;2023-03-14T02:09:20;9.70;99.90
2012;DHT22;1009;51.436;6.972;2023-03-14T02:11:46;9.60;99.90
2012;DHT22;1009;51.436;6.972;2023-03-14T02:14:21;9.70;99.90
2012;DHT22;1009;51.436;6.972;2023-03-14T02:16:51;9.70;99.90
2012;DHT22;1009;51.436;6.972;2023-03-14T02:19:25;9.70;99.90
2012;DHT22;1009;51.436;6.972;2023-03-14T02:21:57;9.70;99.90
2012;DHT22;1009;51.436;6.972;2023-03-14T02:24:34;9.70;99.90
2012;DHT22;1009;51.436;6.972;2023-03-14T02:27:10;9.70;99.90
2012;DHT22;1009;51.436;6.972;2023-03-14T02:29:48;9.80;99.90
2012;DHT22;1009;51.436;6.972;2023-03-14T02:32:17;9.70;99.90
2012;DHT22;1009;51.436;6.972;2023-03-14T02:34:46;9.70;99.90
2012;DHT22;1009;51.436;6.972;2023-03-14T02:37:15;9.80;99.90
2012;DHT22;1009;51.436;6.972;2023-03-14T02:39:53;9.70;99.90
2012;DHT22;1009;51.436;6.972;2023-03-14T02:42:21;9.80;99.90
2012;DHT22;1009;51.436;6.972;2023-03-14T02:44:53;9.80;99.90
2012;DHT22;1009;51.436;6.972;2023-03-14T02:47:24;9.70;99.90
2012;DHT22;1009;51.436;6.972;2023-03-14T02:49:56;9.80;99.90
2012;DHT22;1009;51.436;6.972;2023-03-14T02:52:25;9.90;99.90
2012;DHT22;1009;51.436;6.972;2023-03-14T02:54:52;9.80;99.90
2012;DHT22;1009;51.436;6.972;2023-03-14T02:57:18;9.90;99.90
2012;DHT22;1009;51.436;6.972;2023-03-14T02:59:46;9.90;99.90
2012;DHT22;1009;51.436;6.972;2023-03-14T03:02:13;9.80;99.90
2012;DHT22;1009;51.436;6.972;2023-03-14T03:04:40;9.80;99.90
2012;DHT22;1009;51.436;6.972;2023-03-14T03:07:06;9.80;99.90
2012;DHT22;1009;51.436;6.972;2023-03-14T03:09:33;9.80;99.90
2012;DHT22;1009;51.436;6.972;2023-03-14T03:12:00;9.80;99.90
2012;DHT22;1009;51.436;6.972;2023-03-14T03:14:27;9.80;99.90
2012;DHT22;1009;51.436;6.972;2023-03-14T03:16:55;9.80;99.90
2012;DHT22;1009;51.436;6.972;2023-03-14T03:19:21;9.90;99.90
2012;DHT22;1009;51.436;6.972;2023-03-14T03:21:48;9.90;99.90
2012;DHT22;1009;51.436;6.972;2023-03-14T03:24:15;9.90;99.90
2012;DHT22;1009;51.436;6.972;2023-03-14T03:26:42;10.00;99.90
2012;DHT22;1009;51.436;6.972;2023-03-14T03:29:08;9.90;99.90
2012;DHT22;1009;51.436;6.972;2023-03-14T03:31:36;9.90;99.90
2012;DHT22;1009;51.436;6.972;2023-03-14T03:34:05;9.90;99.90
2012;DHT22;1009;51.436;6.972;2023-03-14T03:36:31;9.90;99.90
2012;DHT22;1009;51.436;6.972;2023-03-14T03:38:58;9.80;99.90
2012;DHT22;1009;51.436;6.972;2023-03-14T03:41:25;9.90;99.90
2012;DHT22;1009;51.436;6.972;2023-03-14T03:43:55;9.80;99.90
2012;DHT22;1009;51.436;6.972;2023-03-14T03:46:22;9.80;99.90
2012;DHT22;1009;51.436;6.972;2023-03-14T03:48:55;9.80;99.90
2012;DHT22;1009;51.436;6.972;2023-03-14T03:51:23;9.80;99.90
2012;DHT22;1009;51.436;6.972;2023-03-14T03:53:53;9.80;99.90
2012;DHT22;1009;51.436;6.972;2023-03-14T03:56:20;9.60;99.90
2012;DHT22;1009;51.436;6.972;2023-03-14T03:58:47;9.60;99.90
2012;DHT22;1009;51.436;6.972;2023-03-14T04:01:13;9.60;99.90
2012;DHT22;1009;51.436;6.972;2023-03-14T04:03:40;9.50;99.90
2012;DHT22;1009;51.436;6.972;2023-03-14T04:06:09;9.50;99.90
2012;DHT22;1009;51.436;6.972;2023-03-14T04:08:37;9.40;99.90
2012;DHT22;1009;51.436;6.972;2023-03-14T04:11:06;9.40;99.90
2012;DHT22;1009;51.436;6.972;2023-03-14T04:13:32;9.40;99.90
2012;DHT22;1009;51.436;6.972;2023-03-14T04:15:59;9.40;99.90
2012;DHT22;1009;51.436;6.972;2023-03-14T04:18:26;9.40;99.90
2012;DHT22;1009;51.436;6.972;2023-03-14T04:20:56;9.40;99.90
2012;DHT22;1009;51.436;6.972;2023-03-14T04:23:24;9.40;99.90
2012;DHT22;1009;51.436;6.972;2023-03-14T04:25:52;9.40;99.90
2012;DHT22;1009;51.436;6.972;2023-03-14T04:28:19;9.30;99.90
2012;DHT22;1009;51.436;6.972;2023-03-14T04:30:46;9.20;99.90
2012;DHT22;1009;51.436;6.972;2023-03-14T04:33:13;9.10;99.90
2012;DHT22;1009;51.436;6.972;2023-03-14T04:35:42;9.10;99.90
2012;DHT22;1009;51.436;6.972;2023-03-14T04:38:09;9.00;99.90
2012;DHT22;1009;51.436;6.972;2023-03-14T04:40:36;9.00;99.90
2012;DHT22;1009;51.436;6.972;2023-03-14T04:43:05;9.00;99.90
2012;DHT22;1009;51.436;6.972;2023-03-14T04:45:32;9.00;99.90
2012;DHT22;1009;51.436;6.972;2023-03-14T04:47:58;8.90;99.90
2012;DHT22;1009;51.436;6.972;2023-03-14T04:50:25;8.90;99.90
2012;DHT22;1009;51.436;6.972;2023-03-14T04:52:52;8.90;99.90
2012;DHT22;1009;51.436;6.972;2023-03-14T04:55:19;8.80;99.90
2012;DHT22;1009;51.436;6.972;2023-03-14T04:57:45;8.70;99.90
2012;DHT22;1009;51.436;6.972;2023-03-14T05:00:14;8.70;99.90
2012;DHT22;1009;51.436;6.972;2023-03-14T05:02:43;8.70;99.90
2012;DHT22;1009;51.436;6.972;2023-03-14T05:05:10;8.60;99.90
2012;DHT22;1009;51.436;6.972;2023-03-14T05:07:37;8.60;99.90
2012;DHT22;1009;51.436;6.972;2023-03-14T05:10:04;8.60;99.90
2012;DHT22;1009;51.436;6.972;2023-03-14T05:12:31;8.60;99.90
2012;DHT22;1009;51.436;6.972;2023-03-14T05:14:58;8.60;99.90
2012;DHT22;1009;51.436;6.972;2023-03-14T05:17:26;8.70;99.90
2012;DHT22;1009;51.436;6.972;2023-03-14T05:19:52;8.80;99.90
2012;DHT22;1009;51.436;6.972;2023-03-14T05:22:19;8.70;99.90
2012;DHT22;1009;51.436;6.972;2023-03-14T05:24:46;8.70;99.90
2012;DHT22;1009;51.436;6.972;2023-03-14T05:27:13;8.80;99.90
2012;DHT22;1009;51.436;6.972;2023-03-14T05:29:40;8.80;99.90
2012;DHT22;1009;51.436;6.972;2023-03-14T05:32:07;8.90;99.90
2012;DHT22;1009;51.436;6.972;2023-03-14T05:34:35;8.80;99.90
2012;DHT22;1009;51.436;6.972;2023-03-14T05:37:02;8.90;99.90
2012;DHT22;1009;51.436;6.972;2023-03-14T05:39:29;8.80;99.90
2012;DHT22;1009;51.436;6.972;2023-03-14T05:42:01;8.80;99.90
2012;DHT22;1009;51.436;6.972;2023-03-14T05:44:28;8.90;99.90
2012;DHT22;1009;51.436;6.972;2023-03-14T05:46:55;8.90;99.90
2012;DHT22;1009;51.436;6.972;2023-03-14T05:49:25;8.90;99.90
2012;DHT22;1009;51.436;6.972;2023-03-14T05:51:53;8.90;99.90
2012;DHT22;1009;51.436;6.972;2023-03-14T05:54:20;8.90;99.90
2012;DHT22;1009;51.436;6.972;2023-03-14T05:56:47;8.80;99.90
2012;DHT22;1009;51.436;6.972;2023-03-14T05:59:13;8.80;99.90
2012;DHT22;1009;51.436;6.972;2023-03-14T06:01:40;8.80;99.90
2012;DHT22;1009;51.436;6.972;2023-03-14T06:04:07;8.80;99.90
2012;DHT22;1009;51.436;6.972;2023-03-14T06:06:34;8.80;99.90
2012;DHT22;1009;51.436;6.972;2023-03-14T06:09:02;8.80;99.90
2012;DHT22;1009;51.436;6.972;2023-03-14T06:11:29;8.90;99.90
2012;DHT22;1009;51.436;6.972;2023-03-14T06:13:56;8.90;99.90
2012;DHT22;1009;51.436;6.972;2023-03-14T06:16:22;9.00;99.90
2012;DHT22;1009;51.436;6.972;2023-03-14T06:18:49;9.00;99.90
2012;DHT22;1009;51.436;6.972;2023-03-14T06:21:17;9.00;99.90
2012;DHT22;1009;51.436;6.972;2023-03-14T06:23:44;9.00;99.90
2012;DHT22;1009;51.436;6.972;2023-03-14T06:26:13;9.00;99.90
2012;DHT22;1009;51.436;6.972;2023-03-14T06:28:40;9.10;99.90
2012;DHT22;1009;51.436;6.972;2023-03-14T06:31:06;9.10;99.90
2012;DHT22;1009;51.436;6.972;2023-03-14T06:33:33;9.10;99.90
2012;DHT22;1009;51.436;6.972;2023-03-14T06:36:00;9.20;99.90
2012;DHT22;1009;51.436;6.972;2023-03-14T06:38:27;9.20;99.90
2012;DHT22;1009;51.436;6.972;2023-03-14T06:40:54;9.20;99.90
2012;DHT22;1009;51.436;6.972;2023-03-14T06:43:32;9.30;99.90
2012;DHT22;1009;51.436;6.972;2023-03-14T06:45:59;9.30;99.90
2012;DHT22;1009;51.436;6.972;2023-03-14T06:48:26;9.30;99.90
2012;DHT22;1009;51.436;6.972;2023-03-14T06:50:53;9.30;99.90
2012;DHT22;1009;51.436;6.972;2023-03-14T06:53:19;9.40;99.90
2012;DHT22;1009;51.436;6.972;2023-03-14T06:55:49;9.40;99.90
2012;DHT22;1009;51.436;6.972;2023-03-14T06:58:16;9.50;99.90
2012;DHT22;1009;51.436;6.972;2023-03-14T07:00:44;9.50;99.90
2012;DHT22;1009;51.436;6.972;2023-03-14T07:03:15;9.50;99.90
2012;DHT22;1009;51.436;6.972;2023-03-14T07:05:41;9.50;99.90
2012;DHT22;1009;51.436;6.972;2023-03-14T07:08:08;9.50;99.90
2012;DHT22;1009;51.436;6.972;2023-03-14T07:10:35;9.50;99.90
2012;DHT22;1009;51.436;6.972;2023-03-14T07:13:05;9.60;99.90
2012;DHT22;1009;51.436;6.972;2023-03-14T07:15:34;9.60;99.90
2012;DHT22;1009;51.436;6.972;2023-03-14T07:18:05;9.60;99.90
2012;DHT22;1009;51.436;6.972;2023-03-14T07:20:32;9.70;99.90
2012;DHT22;1009;51.436;6.972;2023-03-14T07:22:59;9.70;99.90
2012;DHT22;1009;51.436;6.972;2023-03-14T07:25:28;9.70;99.90
2012;DHT22;1009;51.436;6.972;2023-03-14T07:27:57;9.70;99.90
2012;DHT22;1009;51.436;6.972;2023-03-14T07:30:27;9.80;99.90
2012;DHT22;1009;51.436;6.972;2023-03-14T07:32:54;9.80;99.90
2012;DHT22;1009;51.436;6.972;2023-03-14T07:35:22;9.80;99.90
2012;DHT22;1009;51.436;6.972;2023-03-14T07:37:49;9.90;99.90
2012;DHT22;1009;51.436;6.972;2023-03-14T07:40:16;9.90;99.90
2012;DHT22;1009;51.436;6.972;2023-03-14T07:42:43;10.00;99.90
2012;DHT22;1009;51.436;6.972;2023-03-14T07:45:13;10.00;99.90
2012;DHT22;1009;51.436;6.972;2023-03-14T07:47:43;10.00;99.90
2012;DHT22;1009;51.436;6.972;2023-03-14T07:50:16;9.90;99.90
2012;DHT22;1009;51.436;6.972;2023-03-14T07:52:44;9.90;99.90
2012;DHT22;1009;51.436;6.972;2023-03-14T07:55:11;9.90;99.90
2012;DHT22;1009;51.436;6.972;2023-03-14T07:57:39;9.90;99.90
2012;DHT22;1009;51.436;6.972;2023-03-14T08:00:07;9.90;99.90
2012;DHT22;1009;51.436;6.972;2023-03-14T08:02:34;10.00;99.90
2012;DHT22;1009;51.436;6.972;2023-03-14T08:05:01;10.00;99.90
2012;DHT22;1009;51.436;6.972;2023-03-14T08:07:31;10.00;99.90
2012;DHT22;1009;51.436;6.972;2023-03-14T08:09:59;10.00;99.90
2012;DHT22;1009;51.436;6.972;2023-03-14T08:12:31;10.00;99.90
2012;DHT22;1009;51.436;6.972;2023-03-14T08:14:58;10.10;99.90
2012;DHT22;1009;51.436;6.972;2023-03-14T08:17:28;10.10;99.90
2012;DHT22;1009;51.436;6.972;2023-03-14T08:19:57;10.00;99.90
2012;DHT22;1009;51.436;6.972;2023-03-14T08:22:27;10.10;99.90
2012;DHT22;1009;51.436;6.972;2023-03-14T08:24:54;10.00;99.90
2012;DHT22;1009;51.436;6.972;2023-03-14T08:27:22;10.10;99.90
2012;DHT22;1009;51.436;6.972;2023-03-14T08:29:51;10.10;99.90
2012;DHT22;1009;51.436;6.972;2023-03-14T08:32:24;10.10;99.90
2012;DHT22;1009;51.436;6.972;2023-03-14T08:34:50;10.20;99.90
2012;DHT22;1009;51.436;6.972;2023-03-14T08:37:20;10.40;99.90
2012;DHT22;1009;51.436;6.972;2023-03-14T08:39:47;10.30;99.90
2012;DHT22;1009;51.436;6.972;2023-03-14T08:42:14;10.40;99.90
2012;DHT22;1009;51.436;6.972;2023-03-14T08:44:42;10.50;99.90
2012;DHT22;1009;51.436;6.972;2023-03-14T08:47:14;10.50;99.90
2012;DHT22;1009;51.436;6.972;2023-03-14T08:49:44;10.50;99.90
2012;DHT22;1009;51.436;6.972;2023-03-14T08:52:11;10.50;99.90
2012;DHT22;1009;51.436;6.972;2023-03-14T08:54:41;10.60;99.90
2012;DHT22;1009;51.436;6.972;2023-03-14T08:57:08;10.50;99.90
2012;DHT22;1009;51.436;6.972;2023-03-14T08:59:35;10.50;99.90
2012;DHT22;1009;51.436;6.972;2023-03-14T09:02:04;10.40;99.90
2012;DHT22;1009;51.436;6.972;2023-03-14T09:04:32;10.30;99.90
2012;DHT22;1009;51.436;6.972;2023-03-14T09:06:59;10.40;99.90
2012;DHT22;1009;51.436;6.972;2023-03-14T09:09:29;10.20;99.90
2012;DHT22;1009;51.436;6.972;2023-03-14T09:11:56;10.20;99.90
2012;DHT22;1009;51.436;6.972;2023-03-14T09:14:26;10.10;99.90
2012;DHT22;1009;51.436;6.972;2023-03-14T09:16:53;10.00;99.90
2012;DHT22;1009;51.436;6.972;2023-03-14T09:19:21;10.10;99.90
2012;DHT22;1009;51.436;6.972;2023-03-14T09:21:48;10.10;99.90
2012;DHT22;1009;51.436;6.972;2023-03-14T09:24:15;10.10;99.90
2012;DHT22;1009;51.436;6.972;2023-03-14T09:26:44;10.00;99.90
2012;DHT22;1009;51.436;6.972;2023-03-14T09:29:17;9.30;99.90
2012;DHT22;1009;51.436;6.972;2023-03-14T09:31:45;9.00;99.90
2012;DHT22;1009;51.436;6.972;2023-03-14T09:34:12;9.00;99.90
2012;DHT22;1009;51.436;6.972;2023-03-14T09:36:40;8.70;99.90
2012;DHT22;1009;51.436;6.972;2023-03-14T09:39:09;8.50;99.90
2012;DHT22;1009;51.436;6.972;2023-03-14T09:41:38;8.50;99.90
2012;DHT22;1009;51.436;6.972;2023-03-14T09:44:10;8.50;99.90
2012;DHT22;1009;51.436;6.972;2023-03-14T09:46:40;8.50;99.90
2012;DHT22;1009;51.436;6.972;2023-03-14T09:49:11;8.40;99.90
2012;DHT22;1009;51.436;6.972;2023-03-14T09:51:41;8.20;99.90
2012;DHT22;1009;51.436;6.972;2023-03-14T09:54:18;8.30;99.90
2012;DHT22;1009;51.436;6.972;2023-03-14T09:56:49;8.20;99.90
2012;DHT22;1009;51.436;6.972;2023-03-14T09:59:16;8.20;99.90
2012;DHT22;1009;51.436;6.972;2023-03-14T10:01:43;8.10;99.90
2012;DHT22;1009;51.436;6.972;2023-03-14T10:04:14;8.10;99.90
2012;DHT22;1009;51.436;6.972;2023-03-14T10:06:43;8.10;99.90
2012;DHT22;1009;51.436;6.972;2023-03-14T10:09:17;8.00;99.90
2012;DHT22;1009;51.436;6.972;2023-03-14T10:11:45;8.00;99.90
2012;DHT22;1009;51.436;6.972;2023-03-14T10:14:12;7.90;99.90
2012;DHT22;1009;51.436;6.972;2023-03-14T10:16:42;7.90;99.90
2012;DHT22;1009;51.436;6.972;2023-03-14T10:19:11;7.90;99.90
2012;DHT22;1009;51.436;6.972;2023-03-14T10:21:41;7.90;99.90
2012;DHT22;1009;51.436;6.972;2023-03-14T10:24:17;7.80;99.90
2012;DHT22;1009;51.436;6.972;2023-03-14T10:26:48;7.70;99.90
2012;DHT22;1009;51.436;6.972;2023-03-14T10:29:15;7.80;99.90
2012;DHT22;1009;51.436;6.972;2023-03-14T10:31:53;7.70;99.90
2012;DHT22;1009;51.436;6.972;2023-03-14T10:34:24;7.70;99.90
2012;DHT22;1009;51.436;6.972;2023-03-14T10:36:53;7.70;99.90
2012;DHT22;1009;51.436;6.972;2023-03-14T10:39:38;7.70;99.90
2012;DHT22;1009;51.436;6.972;2023-03-14T10:42:15;7.60;99.90
2012;DHT22;1009;51.436;6.972;2023-03-14T10:44:45;7.60;99.90
2012;DHT22;1009;51.436;6.972;2023-03-14T10:47:17;7.40;99.90
2012;DHT22;1009;51.436;6.972;2023-03-14T10:49:45;7.10;99.90
2012;DHT22;1009;51.436;6.972;2023-03-14T10:52:19;7.00;99.90
2012;DHT22;1009;51.436;6.972;2023-03-14T10:54:54;6.90;99.90
2012;DHT22;1009;51.436;6.972;2023-03-14T10:57:22;6.90;99.90
2012;DHT22;1009;51.436;6.972;2023-03-14T10:59:49;6.80;99.90
2012;DHT22;1009;51.436;6.972;2023-03-14T11:02:34;6.90;99.90
2012;DHT22;1009;51.436;6.972;2023-03-14T11:05:15;6.90;99.90
2012;DHT22;1009;51.436;6.972;2023-03-14T11:07:45;6.90;99.90
2012;DHT22;1009;51.436;6.972;2023-03-14T11:10:19;6.80;99.90
2012;DHT22;1009;51.436;6.972;2023-03-14T11:12:58;6.80;99.90
2012;DHT22;1009;51.436;6.972;2023-03-14T11:15:31;6.80;99.90
2012;DHT22;1009;51.436;6.972;2023-03-14T11:18:19;6.70;99.90
2012;DHT22;1009;51.436;6.972;2023-03-14T11:20:52;6.70;99.90
2012;DHT22;1009;51.436;6.972;2023-03-14T11:23:21;6.70;99.90
2012;DHT22;1009;51.436;6.972;2023-03-14T11:25:56;6.80;99.90
2012;DHT22;1009;51.436;6.972;2023-03-14T11:28:29;6.80;99.90
2012;DHT22;1009;51.436;6.972;2023-03-14T11:31:02;6.80;99.90
2012;DHT22;1009;51.436;6.972;2023-03-14T11:33:37;6.90;99.90
2012;DHT22;1009;51.436;6.972;2023-03-14T11:36:07;6.80;99.90
2012;DHT22;1009;51.436;6.972;2023-03-14T11:38:37;6.90;99.90
2012;DHT22;1009;51.436;6.972;2023-03-14T11:41:10;7.10;99.90
2012;DHT22;1009;51.436;6.972;2023-03-14T11:43:39;7.20;99.90
2012;DHT22;1009;51.436;6.972;2023-03-14T11:46:10;7.10;99.90
2012;DHT22;1009;51.436;6.972;2023-03-14T11:48:43;7.10;99.90
2012;DHT22;1009;51.436;6.972;2023-03-14T11:51:17;7.00;99.90
2012;DHT22;1009;51.436;6.972;2023-03-14T11:53:52;6.80;99.90
2012;DHT22;1009;51.436;6.972;2023-03-14T11:56:27;6.70;99.90
2012;DHT22;1009;51.436;6.972;2023-03-14T11:58:59;6.60;99.90
2012;DHT22;1009;51.436;6.972;2023-03-14T12:01:36;6.50;99.90
2012;DHT22;1009;51.436;6.972;2023-03-14T12:04:12;6.50;99.90
2012;DHT22;1009;51.436;6.972;2023-03-14T12:06:45;6.60;99.90
2012;DHT22;1009;51.436;6.972;2023-03-14T12:09:13;6.70;99.90
2012;DHT22;1009;51.436;6.972;2023-03-14T12:11:47;6.80;99.90
2012;DHT22;1009;51.436;6.972;2023-03-14T12:14:19;7.10;99.90
2012;DHT22;1009;51.436;6.972;2023-03-14T12:16:47;7.20;99.90
2012;DHT22;1009;51.436;6.972;2023-03-14T12:19:31;7.20;99.90
2012;DHT22;1009;51.436;6.972;2023-03-14T12:22:01;7.30;99.90
2012;DHT22;1009;51.436;6.972;2023-03-14T12:24:34;7.40;99.90
2012;DHT22;1009;51.436;6.972;2023-03-14T12:27:05;7.40;99.90
2012;DHT22;1009;51.436;6.972;2023-03-14T12:29:59;7.50;99.90
2012;DHT22;1009;51.436;6.972;2023-03-14T12:32:26;7.70;99.90
2012;DHT22;1009;51.436;6.972;2023-03-14T12:34:53;7.90;99.90
2012;DHT22;1009;51.436;6.972;2023-03-14T12:37:25;7.80;99.90
2012;DHT22;1009;51.436;6.972;2023-03-14T12:40:06;7.80;99.90
2012;DHT22;1009;51.436;6.972;2023-03-14T12:42:56;7.60;99.90
2012;DHT22;1009;51.436;6.972;2023-03-14T12:45:27;7.50;99.90
2012;DHT22;1009;51.436;6.972;2023-03-14T12:48:00;7.40;99.90
2012;DHT22;1009;51.436;6.972;2023-03-14T12:50:42;7.20;99.90
2012;DHT22;1009;51.436;6.972;2023-03-14T12:53:32;7.10;99.90
2012;DHT22;1009;51.436;6.972;2023-03-14T12:56:06;6.70;99.90
2012;DHT22;1009;51.436;6.972;2023-03-14T12:58:39;6.50;99.90
2012;DHT22;1009;51.436;6.972;2023-03-14T13:01:16;6.30;99.90
2012;DHT22;1009;51.436;6.972;2023-03-14T13:03:46;6.10;99.90
2012;DHT22;1009;51.436;6.972;2023-03-14T13:06:12;6.10;99.90
2012;DHT22;1009;51.436;6.972;2023-03-14T13:08:41;6.20;99.90
2012;DHT22;1009;51.436;6.972;2023-03-14T13:11:10;6.30;99.90
2012;DHT22;1009;51.436;6.972;2023-03-14T13:13:44;6.50;99.90
2012;DHT22;1009;51.436;6.972;2023-03-14T13:16:17;6.80;99.90
2012;DHT22;1009;51.436;6.972;2023-03-14T13:18:45;6.80;99.90
2012;DHT22;1009;51.436;6.972;2023-03-14T13:21:15;6.70;99.90
2012;DHT22;1009;51.436;6.972;2023-03-14T13:23:55;6.50;99.90
2012;DHT22;1009;51.436;6.972;2023-03-14T13:26:24;6.50;99.90
2012;DHT22;1009;51.436;6.972;2023-03-14T13:28:51;6.30;99.90
2012;DHT22;1009;51.436;6.972;2023-03-14T13:31:23;6.00;99.90
2012;DHT22;1009;51.436;6.972;2023-03-14T13:33:58;6.00;99.90
2012;DHT22;1009;51.436;6.972;2023-03-14T13:36:25;6.10;99.90
2012;DHT22;1009;51.436;6.972;2023-03-14T13:38:56;6.20;99.90
2012;DHT22;1009;51.436;6.972;2023-03-14T13:41:23;6.40;99.90
2012;DHT22;1009;51.436;6.972;2023-03-14T13:43:50;6.50;99.90
2012;DHT22;1009;51.436;6.972;2023-03-14T13:46:21;6.50;99.90
2012;DHT22;1009;51.436;6.972;2023-03-14T13:48:53;6.70;99.90
2012;DHT22;1009;51.436;6.972;2023-03-14T13:51:21;6.70;99.90
2012;DHT22;1009;51.436;6.972;2023-03-14T13:53:49;6.90;99.90
2012;DHT22;1009;51.436;6.972;2023-03-14T13:56:17;7.30;99.90
2012;DHT22;1009;51.436;6.972;2023-03-14T13:58:44;7.70;99.90
2012;DHT22;1009;51.436;6.972;2023-03-14T14:01:14;7.90;99.90
2012;DHT22;1009;51.436;6.972;2023-03-14T14:03:44;8.30;99.90
2012;DHT22;1009;51.436;6.972;2023-03-14T14:06:22;8.70;99.90
2012;DHT22;1009;51.436;6.972;2023-03-14T14:08:49;8.90;99.90
2012;DHT22;1009;51.436;6.972;2023-03-14T14:11:31;8.70;99.90
2012;DHT22;1009;51.436;6.972;2023-03-14T14:13:59;8.80;99.90
2012;DHT22;1009;51.436;6.972;2023-03-14T14:16:28;8.80;99.90
2012;DHT22;1009;51.436;6.972;2023-03-14T14:18:57;8.80;99.90
2012;DHT22;1009;51.436;6.972;2023-03-14T14:21:25;8.60;99.90
2012;DHT22;1009;51.436;6.972;2023-03-14T14:23:53;8.40;99.90
2012;DHT22;1009;51.436;6.972;2023-03-14T14:26:20;8.10;99.90
2012;DHT22;1009;51.436;6.972;2023-03-14T14:28:47;8.10;99.90
2012;DHT22;1009;51.436;6.972;2023-03-14T14:31:24;8.20;99.90
2012;DHT22;1009;51.436;6.972;2023-03-14T14:33:57;8.50;99.90
2012;DHT22;1009;51.436;6.972;2023-03-14T14:36:28;8.80;99.90
2012;DHT22;1009;51.436;6.972;2023-03-14T14:38:59;8.90;99.90
2012;DHT22;1009;51.436;6.972;2023-03-14T14:41:33;9.20;98.90
2012;DHT22;1009;51.436;6.972;2023-03-14T14:44:03;9.20;99.70
2012;DHT22;1009;51.436;6.972;2023-03-14T14:46:31;9.00;99.50
2012;DHT22;1009;51.436;6.972;2023-03-14T14:49:04;8.70;93.70
2012;DHT22;1009;51.436;6.972;2023-03-14T14:51:38;8.90;94.80
2012;DHT22;1009;51.436;6.972;2023-03-14T14:54:19;9.20;90.70
2012;DHT22;1009;51.436;6.972;2023-03-14T14:56:48;9.20;90.50
2012;DHT22;1009;51.436;6.972;2023-03-14T14:59:24;8.80;90.20
2012;DHT22;1009;51.436;6.972;2023-03-14T15:01:55;8.30;90.70
2012;DHT22;1009;51.436;6.972;2023-03-14T15:04:24;8.00;90.40
2012;DHT22;1009;51.436;6.972;2023-03-14T15:06:52;7.80;92.40
2012;DHT22;1009;51.436;6.972;2023-03-14T15:09:19;7.80;93.10
2012;DHT22;1009;51.436;6.972;2023-03-14T15:11:46;7.80;94.30
2012;DHT22;1009;51.436;6.972;2023-03-14T15:14:13;7.90;96.20
2012;DHT22;1009;51.436;6.972;2023-03-14T15:16:45;7.80;95.20
2012;DHT22;1009;51.436;6.972;2023-03-14T15:19:24;7.80;97.00
2012;DHT22;1009;51.436;6.972;2023-03-14T15:21:58;7.80;98.60
2012;DHT22;1009;51.436;6.972;2023-03-14T15:24:25;7.70;92.10
2012;DHT22;1009;51.436;6.972;2023-03-14T15:26:51;7.80;92.90
2012;DHT22;1009;51.436;6.972;2023-03-14T15:29:18;7.80;92.90
2012;DHT22;1009;51.436;6.972;2023-03-14T15:31:45;7.60;90.60
2012;DHT22;1009;51.436;6.972;2023-03-14T15:34:12;7.50;89.90
2012;DHT22;1009;51.436;6.972;2023-03-14T15:36:43;7.40;89.90
2012;DHT22;1009;51.436;6.972;2023-03-14T15:39:10;7.30;90.00
2012;DHT22;1009;51.436;6.972;2023-03-14T15:41:37;7.20;91.00
2012;DHT22;1009;51.436;6.972;2023-03-14T15:44:04;7.20;91.10
2012;DHT22;1009;51.436;6.972;2023-03-14T15:46:30;7.30;93.20
2012;DHT22;1009;51.436;6.972;2023-03-14T15:48:57;7.20;92.30
2012;DHT22;1009;51.436;6.972;2023-03-14T15:51:24;7.20;92.90
2012;DHT22;1009;51.436;6.972;2023-03-14T15:53:52;7.20;92.10
2012;DHT22;1009;51.436;6.972;2023-03-14T15:56:20;7.20;93.20
2012;DHT22;1009;51.436;6.972;2023-03-14T15:58:49;7.10;92.90
2012;DHT22;1009;51.436;6.972;2023-03-14T16:01:16;7.10;93.20
2012;DHT22;1009;51.436;6.972;2023-03-14T16:03:43;7.20;95.20
2012;DHT22;1009;51.436;6.972;2023-03-14T16:06:10;7.20;93.70
2012;DHT22;1009;51.436;6.972;2023-03-14T16:08:37;7.10;93.50
2012;DHT22;1009;51.436;6.972;2023-03-14T16:11:06;7.00;92.90
2012;DHT22;1009;51.436;6.972;2023-03-14T16:13:32;7.00;93.40
2012;DHT22;1009;51.436;6.972;2023-03-14T16:16:01;7.10;96.70
2012;DHT22;1009;51.436;6.972;2023-03-14T16:18:29;7.10;94.90
2012;DHT22;1009;51.436;6.972;2023-03-14T16:21:00;7.10;99.40
2012;DHT22;1009;51.436;6.972;2023-03-14T16:23:31;7.10;97.30
2012;DHT22;1009;51.436;6.972;2023-03-14T16:25:58;7.10;95.90
2012;DHT22;1009;51.436;6.972;2023-03-14T16:28:32;7.10;95.50